sensor_id;sensor_type;location;lat;lon;timestamp;P1;durP1;ratioP1;P2;durP2;ratioP2
34064;SDS011;20339;49.754;20.158;2022-10-15T00:02:16;15.60;;;12.90;;
34064;SDS011;20339;49.754;20.158;2022-10-15T00:04:50;17.20;;;13.20;;
34064;SDS011;20339;49.754;20.158;2022-10-15T00:07:21;15.20;;;12.60;;
34064;SDS011;20339;49.754;20.158;2022-10-15T00:09:52;15.10;;;12.90;;
34064;SDS011;20339;49.754;20.158;2022-10-15T00:12:23;16.90;;;13.90;;
34064;SDS011;20339;49.754;20.158;2022-10-15T00:14:55;15.50;;;12.90;;
34064;SDS011;20339;49.754;20.158;2022-10-15T00:17:27;19.80;;;14.50;;
34064;SDS011;20339;49.754;20.158;2022-10-15T00:19:58;19.20;;;14.90;;
34064;SDS011;20339;49.754;20.158;2022-10-15T00:22:29;17.00;;;14.20;;
34064;SDS011;20339;49.754;20.158;2022-10-15T00:25:01;17.00;;;14.30;;
34064;SDS011;20339;49.754;20.158;2022-10-15T00:27:34;16.90;;;14.30;;
34064;SDS011;20339;49.754;20.158;2022-10-15T00:30:06;16.90;;;13.70;;
34064;SDS011;20339;49.754;20.158;2022-10-15T00:32:38;17.00;;;13.30;;
34064;SDS011;20339;49.754;20.158;2022-10-15T00:35:12;16.20;;;14.00;;
34064;SDS011;20339;49.754;20.158;2022-10-15T00:37:43;19.40;;;14.90;;
34064;SDS011;20339;49.754;20.158;2022-10-15T00:40:14;19.90;;;14.60;;
34064;SDS011;20339;49.754;20.158;2022-10-15T00:42:46;16.60;;;14.10;;
34064;SDS011;20339;49.754;20.158;2022-10-15T00:45:17;17.00;;;14.80;;
34064;SDS011;20339;49.754;20.158;2022-10-15T00:47:49;17.60;;;15.30;;
34064;SDS011;20339;49.754;20.158;2022-10-15T00:50:22;16.80;;;14.30;;
34064;SDS011;20339;49.754;20.158;2022-10-15T00:52:58;19.30;;;14.50;;
34064;SDS011;20339;49.754;20.158;2022-10-15T00:55:31;19.00;;;14.60;;
34064;SDS011;20339;49.754;20.158;2022-10-15T00:58:08;17.30;;;15.00;;
34064;SDS011;20339;49.754;20.158;2022-10-15T01:00:43;17.80;;;14.20;;
34064;SDS011;20339;49.754;20.158;2022-10-15T01:03:14;17.10;;;14.30;;
34064;SDS011;20339;49.754;20.158;2022-10-15T01:05:46;18.60;;;15.00;;
34064;SDS011;20339;49.754;20.158;2022-10-15T01:08:20;17.90;;;13.80;;
34064;SDS011;20339;49.754;20.158;2022-10-15T01:10:53;17.90;;;14.60;;
34064;SDS011;20339;49.754;20.158;2022-10-15T01:13:35;18.20;;;13.80;;
34064;SDS011;20339;49.754;20.158;2022-10-15T01:16:15;17.40;;;14.00;;
34064;SDS011;20339;49.754;20.158;2022-10-15T01:18:53;16.30;;;14.10;;
34064;SDS011;20339;49.754;20.158;2022-10-15T01:21:31;18.70;;;13.60;;
34064;SDS011;20339;49.754;20.158;2022-10-15T01:27:20;18.00;;;14.50;;
34064;SDS011;20339;49.754;20.158;2022-10-15T01:35:59;19.20;;;15.00;;
34064;SDS011;20339;49.754;20.158;2022-10-15T01:38:44;17.80;;;13.90;;
34064;SDS011;20339;49.754;20.158;2022-10-15T01:41:24;17.30;;;14.70;;
34064;SDS011;20339;49.754;20.158;2022-10-15T01:44:06;19.70;;;15.40;;
34064;SDS011;20339;49.754;20.158;2022-10-15T01:46:40;18.80;;;15.40;;
34064;SDS011;20339;49.754;20.158;2022-10-15T01:49:15;17.20;;;13.70;;
34064;SDS011;20339;49.754;20.158;2022-10-15T01:51:49;17.60;;;14.60;;
34064;SDS011;20339;49.754;20.158;2022-10-15T01:54:22;19.20;;;14.70;;
34064;SDS011;20339;49.754;20.158;2022-10-15T01:56:56;19.70;;;14.00;;
34064;SDS011;20339;49.754;20.158;2022-10-15T01:59:29;19.30;;;14.10;;
34064;SDS011;20339;49.754;20.158;2022-10-15T02:02:02;18.00;;;14.30;;
34064;SDS011;20339;49.754;20.158;2022-10-15T02:04:33;17.70;;;13.30;;
34064;SDS011;20339;49.754;20.158;2022-10-15T02:07:04;18.70;;;14.60;;
34064;SDS011;20339;49.754;20.158;2022-10-15T02:09:40;18.40;;;14.70;;
34064;SDS011;20339;49.754;20.158;2022-10-15T02:12:22;17.00;;;14.30;;
34064;SDS011;20339;49.754;20.158;2022-10-15T02:15:13;21.00;;;14.90;;
34064;SDS011;20339;49.754;20.158;2022-10-15T02:17:54;18.70;;;14.80;;
34064;SDS011;20339;49.754;20.158;2022-10-15T02:20:31;16.40;;;13.60;;
34064;SDS011;20339;49.754;20.158;2022-10-15T02:23:11;17.40;;;13.20;;
34064;SDS011;20339;49.754;20.158;2022-10-15T02:25:46;17.60;;;13.40;;
34064;SDS011;20339;49.754;20.158;2022-10-15T02:28:20;17.60;;;13.30;;
34064;SDS011;20339;49.754;20.158;2022-10-15T02:30:56;17.30;;;13.60;;
34064;SDS011;20339;49.754;20.158;2022-10-15T02:33:30;18.90;;;14.40;;
34064;SDS011;20339;49.754;20.158;2022-10-15T02:36:03;19.40;;;12.80;;
34064;SDS011;20339;49.754;20.158;2022-10-15T02:38:36;17.10;;;13.70;;
34064;SDS011;20339;49.754;20.158;2022-10-15T02:41:08;16.80;;;13.70;;
34064;SDS011;20339;49.754;20.158;2022-10-15T02:43:42;16.00;;;12.30;;
34064;SDS011;20339;49.754;20.158;2022-10-15T02:46:15;16.90;;;13.50;;
34064;SDS011;20339;49.754;20.158;2022-10-15T02:48:48;19.20;;;14.40;;
34064;SDS011;20339;49.754;20.158;2022-10-15T02:51:19;15.50;;;12.40;;
34064;SDS011;20339;49.754;20.158;2022-10-15T02:53:50;18.40;;;13.70;;
34064;SDS011;20339;49.754;20.158;2022-10-15T02:56:21;16.30;;;14.40;;
34064;SDS011;20339;49.754;20.158;2022-10-15T02:58:53;17.50;;;14.60;;
34064;SDS011;20339;49.754;20.158;2022-10-15T03:01:24;16.20;;;13.60;;
34064;SDS011;20339;49.754;20.158;2022-10-15T03:03:55;16.70;;;13.50;;
34064;SDS011;20339;49.754;20.158;2022-10-15T03:06:26;15.40;;;12.80;;
34064;SDS011;20339;49.754;20.158;2022-10-15T03:08:57;17.80;;;13.80;;
34064;SDS011;20339;49.754;20.158;2022-10-15T03:11:28;17.60;;;13.10;;
34064;SDS011;20339;49.754;20.158;2022-10-15T03:14:00;17.50;;;13.20;;
34064;SDS011;20339;49.754;20.158;2022-10-15T03:16:31;18.00;;;13.70;;
34064;SDS011;20339;49.754;20.158;2022-10-15T03:21:31;16.50;;;13.20;;
34064;SDS011;20339;49.754;20.158;2022-10-15T03:24:02;19.50;;;13.80;;
34064;SDS011;20339;49.754;20.158;2022-10-15T03:26:36;17.50;;;13.30;;
34064;SDS011;20339;49.754;20.158;2022-10-15T03:29:08;19.70;;;14.90;;
34064;SDS011;20339;49.754;20.158;2022-10-15T03:31:39;16.00;;;13.90;;
34064;SDS011;20339;49.754;20.158;2022-10-15T03:34:10;16.40;;;13.40;;
34064;SDS011;20339;49.754;20.158;2022-10-15T03:36:41;19.80;;;15.20;;
34064;SDS011;20339;49.754;20.158;2022-10-15T03:39:12;16.40;;;13.20;;
34064;SDS011;20339;49.754;20.158;2022-10-15T03:41:44;17.70;;;14.00;;
34064;SDS011;20339;49.754;20.158;2022-10-15T03:44:15;16.90;;;13.50;;
34064;SDS011;20339;49.754;20.158;2022-10-15T03:46:46;16.10;;;14.30;;
34064;SDS011;20339;49.754;20.158;2022-10-15T03:49:17;17.00;;;13.90;;
34064;SDS011;20339;49.754;20.158;2022-10-15T03:51:48;16.30;;;13.60;;
34064;SDS011;20339;49.754;20.158;2022-10-15T03:54:19;16.50;;;13.50;;
34064;SDS011;20339;49.754;20.158;2022-10-15T03:56:50;20.20;;;13.40;;
34064;SDS011;20339;49.754;20.158;2022-10-15T03:59:21;15.70;;;13.00;;
34064;SDS011;20339;49.754;20.158;2022-10-15T04:01:52;16.80;;;13.80;;
34064;SDS011;20339;49.754;20.158;2022-10-15T04:04:23;16.20;;;13.60;;
34064;SDS011;20339;49.754;20.158;2022-10-15T04:06:54;19.40;;;15.10;;
34064;SDS011;20339;49.754;20.158;2022-10-15T04:09:25;16.90;;;13.50;;
34064;SDS011;20339;49.754;20.158;2022-10-15T04:11:56;17.10;;;13.80;;
34064;SDS011;20339;49.754;20.158;2022-10-15T04:14:27;17.50;;;13.60;;
34064;SDS011;20339;49.754;20.158;2022-10-15T04:16:58;18.00;;;13.80;;
34064;SDS011;20339;49.754;20.158;2022-10-15T04:19:29;17.50;;;14.70;;
34064;SDS011;20339;49.754;20.158;2022-10-15T04:22:01;17.50;;;13.70;;
34064;SDS011;20339;49.754;20.158;2022-10-15T04:24:32;20.50;;;15.00;;
34064;SDS011;20339;49.754;20.158;2022-10-15T04:27:05;17.80;;;14.10;;
34064;SDS011;20339;49.754;20.158;2022-10-15T04:29:36;17.00;;;14.40;;
34064;SDS011;20339;49.754;20.158;2022-10-15T04:32:08;17.70;;;14.00;;
34064;SDS011;20339;49.754;20.158;2022-10-15T04:34:41;17.10;;;13.90;;
34064;SDS011;20339;49.754;20.158;2022-10-15T04:37:13;17.10;;;14.20;;
34064;SDS011;20339;49.754;20.158;2022-10-15T04:39:44;17.80;;;14.40;;
34064;SDS011;20339;49.754;20.158;2022-10-15T04:42:15;17.20;;;14.50;;
34064;SDS011;20339;49.754;20.158;2022-10-15T04:44:46;19.00;;;14.20;;
34064;SDS011;20339;49.754;20.158;2022-10-15T04:47:17;17.90;;;14.10;;
34064;SDS011;20339;49.754;20.158;2022-10-15T04:49:48;19.80;;;15.40;;
34064;SDS011;20339;49.754;20.158;2022-10-15T04:52:24;17.20;;;14.20;;
34064;SDS011;20339;49.754;20.158;2022-10-15T04:54:55;19.60;;;14.40;;
34064;SDS011;20339;49.754;20.158;2022-10-15T04:57:26;15.10;;;12.90;;
34064;SDS011;20339;49.754;20.158;2022-10-15T04:59:57;18.10;;;13.90;;
34064;SDS011;20339;49.754;20.158;2022-10-15T05:02:29;17.50;;;13.50;;
34064;SDS011;20339;49.754;20.158;2022-10-15T05:05:03;15.90;;;13.10;;
34064;SDS011;20339;49.754;20.158;2022-10-15T05:07:36;15.30;;;12.70;;
34064;SDS011;20339;49.754;20.158;2022-10-15T05:10:08;18.10;;;12.80;;
34064;SDS011;20339;49.754;20.158;2022-10-15T05:12:39;16.50;;;14.10;;
34064;SDS011;20339;49.754;20.158;2022-10-15T05:15:10;15.50;;;13.50;;
34064;SDS011;20339;49.754;20.158;2022-10-15T05:17:42;18.40;;;13.70;;
34064;SDS011;20339;49.754;20.158;2022-10-15T05:20:13;17.50;;;13.10;;
34064;SDS011;20339;49.754;20.158;2022-10-15T05:22:44;18.80;;;13.90;;
34064;SDS011;20339;49.754;20.158;2022-10-15T05:25:15;18.20;;;14.10;;
34064;SDS011;20339;49.754;20.158;2022-10-15T05:27:46;18.30;;;11.70;;
34064;SDS011;20339;49.754;20.158;2022-10-15T05:30:17;13.90;;;10.90;;
34064;SDS011;20339;49.754;20.158;2022-10-15T05:32:51;16.60;;;12.00;;
34064;SDS011;20339;49.754;20.158;2022-10-15T05:35:22;15.50;;;11.90;;
34064;SDS011;20339;49.754;20.158;2022-10-15T05:37:54;17.50;;;11.60;;
34064;SDS011;20339;49.754;20.158;2022-10-15T05:40:25;14.30;;;11.80;;
34064;SDS011;20339;49.754;20.158;2022-10-15T05:42:56;15.80;;;12.20;;
34064;SDS011;20339;49.754;20.158;2022-10-15T05:45:27;12.70;;;11.30;;
34064;SDS011;20339;49.754;20.158;2022-10-15T05:47:59;14.60;;;10.70;;
34064;SDS011;20339;49.754;20.158;2022-10-15T05:50:30;14.00;;;11.10;;
34064;SDS011;20339;49.754;20.158;2022-10-15T05:53:01;13.40;;;10.80;;
34064;SDS011;20339;49.754;20.158;2022-10-15T05:55:32;12.50;;;10.20;;
34064;SDS011;20339;49.754;20.158;2022-10-15T05:58:04;13.10;;;10.30;;
34064;SDS011;20339;49.754;20.158;2022-10-15T06:00:35;13.10;;;10.40;;
34064;SDS011;20339;49.754;20.158;2022-10-15T06:03:08;13.50;;;10.60;;
34064;SDS011;20339;49.754;20.158;2022-10-15T06:05:42;12.10;;;9.60;;
34064;SDS011;20339;49.754;20.158;2022-10-15T06:08:13;11.90;;;9.50;;
34064;SDS011;20339;49.754;20.158;2022-10-15T06:10:44;12.00;;;9.70;;
34064;SDS011;20339;49.754;20.158;2022-10-15T06:13:16;10.90;;;9.00;;
34064;SDS011;20339;49.754;20.158;2022-10-15T06:15:47;10.10;;;8.70;;
34064;SDS011;20339;49.754;20.158;2022-10-15T06:18:18;8.80;;;7.70;;
34064;SDS011;20339;49.754;20.158;2022-10-15T06:20:51;9.40;;;8.20;;
34064;SDS011;20339;49.754;20.158;2022-10-15T06:23:23;10.50;;;8.50;;
34064;SDS011;20339;49.754;20.158;2022-10-15T06:26:00;10.30;;;7.90;;
34064;SDS011;20339;49.754;20.158;2022-10-15T06:28:32;9.00;;;8.10;;
34064;SDS011;20339;49.754;20.158;2022-10-15T06:31:05;11.70;;;8.00;;
34064;SDS011;20339;49.754;20.158;2022-10-15T06:33:40;10.20;;;7.60;;
34064;SDS011;20339;49.754;20.158;2022-10-15T06:36:12;9.70;;;7.80;;
34064;SDS011;20339;49.754;20.158;2022-10-15T06:38:43;10.00;;;7.50;;
34064;SDS011;20339;49.754;20.158;2022-10-15T06:41:15;9.30;;;7.70;;
34064;SDS011;20339;49.754;20.158;2022-10-15T06:43:48;9.30;;;7.90;;
34064;SDS011;20339;49.754;20.158;2022-10-15T06:46:21;9.20;;;8.10;;
34064;SDS011;20339;49.754;20.158;2022-10-15T06:48:53;10.90;;;8.60;;
34064;SDS011;20339;49.754;20.158;2022-10-15T06:51:24;11.00;;;8.80;;
34064;SDS011;20339;49.754;20.158;2022-10-15T06:53:55;10.70;;;9.40;;
34064;SDS011;20339;49.754;20.158;2022-10-15T06:56:27;9.60;;;8.50;;
34064;SDS011;20339;49.754;20.158;2022-10-15T06:58:59;11.70;;;9.70;;
34064;SDS011;20339;49.754;20.158;2022-10-15T07:01:31;11.90;;;10.00;;
34064;SDS011;20339;49.754;20.158;2022-10-15T07:04:03;12.90;;;9.80;;
34064;SDS011;20339;49.754;20.158;2022-10-15T07:06:34;11.60;;;9.60;;
34064;SDS011;20339;49.754;20.158;2022-10-15T07:09:06;11.90;;;10.10;;
34064;SDS011;20339;49.754;20.158;2022-10-15T07:11:37;18.60;;;11.40;;
34064;SDS011;20339;49.754;20.158;2022-10-15T07:14:08;12.20;;;10.90;;
34064;SDS011;20339;49.754;20.158;2022-10-15T07:16:39;13.50;;;11.50;;
34064;SDS011;20339;49.754;20.158;2022-10-15T07:19:10;14.20;;;11.60;;
34064;SDS011;20339;49.754;20.158;2022-10-15T07:21:42;13.00;;;11.40;;
34064;SDS011;20339;49.754;20.158;2022-10-15T07:24:13;13.00;;;11.20;;
34064;SDS011;20339;49.754;20.158;2022-10-15T07:26:47;14.10;;;11.60;;
34064;SDS011;20339;49.754;20.158;2022-10-15T07:29:18;14.30;;;12.50;;
34064;SDS011;20339;49.754;20.158;2022-10-15T07:31:50;15.30;;;12.30;;
34064;SDS011;20339;49.754;20.158;2022-10-15T07:34:21;14.50;;;12.40;;
34064;SDS011;20339;49.754;20.158;2022-10-15T07:36:52;16.70;;;12.70;;
34064;SDS011;20339;49.754;20.158;2022-10-15T07:39:23;15.80;;;12.80;;
34064;SDS011;20339;49.754;20.158;2022-10-15T07:41:56;17.20;;;12.10;;
34064;SDS011;20339;49.754;20.158;2022-10-15T07:44:27;13.30;;;11.30;;
34064;SDS011;20339;49.754;20.158;2022-10-15T07:46:59;15.20;;;12.40;;
34064;SDS011;20339;49.754;20.158;2022-10-15T07:49:30;14.80;;;12.80;;
34064;SDS011;20339;49.754;20.158;2022-10-15T07:52:01;15.00;;;12.80;;
34064;SDS011;20339;49.754;20.158;2022-10-15T07:54:35;15.60;;;11.90;;
34064;SDS011;20339;49.754;20.158;2022-10-15T07:57:06;14.10;;;12.20;;
34064;SDS011;20339;49.754;20.158;2022-10-15T07:59:38;15.10;;;12.30;;
34064;SDS011;20339;49.754;20.158;2022-10-15T08:02:12;15.10;;;13.50;;
34064;SDS011;20339;49.754;20.158;2022-10-15T08:04:45;14.20;;;12.70;;
34064;SDS011;20339;49.754;20.158;2022-10-15T08:07:16;14.50;;;12.20;;
34064;SDS011;20339;49.754;20.158;2022-10-15T08:09:47;15.80;;;13.60;;
34064;SDS011;20339;49.754;20.158;2022-10-15T08:12:18;13.10;;;9.50;;
34064;SDS011;20339;49.754;20.158;2022-10-15T08:14:50;14.90;;;13.40;;
34064;SDS011;20339;49.754;20.158;2022-10-15T08:17:21;16.10;;;13.20;;
34064;SDS011;20339;49.754;20.158;2022-10-15T08:19:55;15.60;;;13.60;;
34064;SDS011;20339;49.754;20.158;2022-10-15T08:22:26;14.80;;;12.50;;
34064;SDS011;20339;49.754;20.158;2022-10-15T08:24:59;14.00;;;12.30;;
34064;SDS011;20339;49.754;20.158;2022-10-15T08:27:30;16.10;;;12.60;;
34064;SDS011;20339;49.754;20.158;2022-10-15T08:30:02;13.60;;;12.20;;
34064;SDS011;20339;49.754;20.158;2022-10-15T08:32:35;14.10;;;12.70;;
34064;SDS011;20339;49.754;20.158;2022-10-15T08:35:06;13.80;;;12.40;;
34064;SDS011;20339;49.754;20.158;2022-10-15T08:37:38;15.10;;;12.60;;
34064;SDS011;20339;49.754;20.158;2022-10-15T08:40:11;13.60;;;12.20;;
34064;SDS011;20339;49.754;20.158;2022-10-15T08:42:44;12.80;;;10.80;;
34064;SDS011;20339;49.754;20.158;2022-10-15T08:45:18;15.10;;;12.50;;
34064;SDS011;20339;49.754;20.158;2022-10-15T08:47:55;14.20;;;12.40;;
34064;SDS011;20339;49.754;20.158;2022-10-15T08:50:31;12.80;;;11.30;;
34064;SDS011;20339;49.754;20.158;2022-10-15T08:53:10;12.10;;;10.90;;
34064;SDS011;20339;49.754;20.158;2022-10-15T08:55:47;14.00;;;11.90;;
34064;SDS011;20339;49.754;20.158;2022-10-15T08:58:24;13.10;;;11.40;;
34064;SDS011;20339;49.754;20.158;2022-10-15T09:01:08;13.70;;;12.20;;
34064;SDS011;20339;49.754;20.158;2022-10-15T09:03:48;14.10;;;11.50;;
34064;SDS011;20339;49.754;20.158;2022-10-15T09:06:29;13.90;;;12.40;;
34064;SDS011;20339;49.754;20.158;2022-10-15T09:09:06;13.10;;;11.80;;
34064;SDS011;20339;49.754;20.158;2022-10-15T09:11:47;15.60;;;12.80;;
34064;SDS011;20339;49.754;20.158;2022-10-15T09:14:28;14.40;;;11.90;;
34064;SDS011;20339;49.754;20.158;2022-10-15T09:17:04;13.70;;;11.40;;
34064;SDS011;20339;49.754;20.158;2022-10-15T09:19:43;13.70;;;11.90;;
34064;SDS011;20339;49.754;20.158;2022-10-15T09:22:18;15.40;;;12.40;;
34064;SDS011;20339;49.754;20.158;2022-10-15T09:24:56;13.90;;;11.20;;
34064;SDS011;20339;49.754;20.158;2022-10-15T09:27:29;13.80;;;12.40;;
34064;SDS011;20339;49.754;20.158;2022-10-15T09:30:03;12.50;;;11.20;;
34064;SDS011;20339;49.754;20.158;2022-10-15T09:32:47;13.70;;;11.30;;
34064;SDS011;20339;49.754;20.158;2022-10-15T09:35:24;13.80;;;11.30;;
34064;SDS011;20339;49.754;20.158;2022-10-15T09:38:00;12.50;;;11.20;;
34064;SDS011;20339;49.754;20.158;2022-10-15T09:40:45;13.00;;;11.60;;
34064;SDS011;20339;49.754;20.158;2022-10-15T09:43:30;11.60;;;9.60;;
34064;SDS011;20339;49.754;20.158;2022-10-15T09:46:04;13.10;;;10.90;;
34064;SDS011;20339;49.754;20.158;2022-10-15T09:48:39;11.40;;;9.30;;
34064;SDS011;20339;49.754;20.158;2022-10-15T09:51:19;14.80;;;11.00;;
34064;SDS011;20339;49.754;20.158;2022-10-15T09:53:58;14.10;;;10.70;;
34064;SDS011;20339;49.754;20.158;2022-10-15T09:56:37;14.30;;;11.00;;
34064;SDS011;20339;49.754;20.158;2022-10-15T09:59:15;13.10;;;11.30;;
34064;SDS011;20339;49.754;20.158;2022-10-15T10:01:56;15.60;;;10.60;;
34064;SDS011;20339;49.754;20.158;2022-10-15T10:04:30;11.40;;;10.20;;
34064;SDS011;20339;49.754;20.158;2022-10-15T10:07:04;13.80;;;11.10;;
34064;SDS011;20339;49.754;20.158;2022-10-15T10:09:37;13.10;;;10.10;;
34064;SDS011;20339;49.754;20.158;2022-10-15T10:12:22;12.40;;;10.40;;
34064;SDS011;20339;49.754;20.158;2022-10-15T10:14:56;12.90;;;10.80;;
34064;SDS011;20339;49.754;20.158;2022-10-15T10:17:29;15.00;;;10.20;;
34064;SDS011;20339;49.754;20.158;2022-10-15T10:20:09;12.50;;;10.50;;
34064;SDS011;20339;49.754;20.158;2022-10-15T10:22:45;13.00;;;9.90;;
34064;SDS011;20339;49.754;20.158;2022-10-15T10:25:23;14.50;;;11.70;;
34064;SDS011;20339;49.754;20.158;2022-10-15T10:28:04;11.90;;;8.90;;
34064;SDS011;20339;49.754;20.158;2022-10-15T10:30:48;11.50;;;10.00;;
34064;SDS011;20339;49.754;20.158;2022-10-15T10:33:31;12.60;;;10.20;;
34064;SDS011;20339;49.754;20.158;2022-10-15T10:36:06;10.80;;;8.90;;
34064;SDS011;20339;49.754;20.158;2022-10-15T10:38:55;12.90;;;11.10;;
34064;SDS011;20339;49.754;20.158;2022-10-15T10:41:48;12.20;;;10.00;;
34064;SDS011;20339;49.754;20.158;2022-10-15T10:44:24;13.30;;;10.80;;
34064;SDS011;20339;49.754;20.158;2022-10-15T10:47:11;12.30;;;11.00;;
34064;SDS011;20339;49.754;20.158;2022-10-15T10:49:46;13.00;;;10.20;;
34064;SDS011;20339;49.754;20.158;2022-10-15T10:52:22;10.80;;;9.70;;
34064;SDS011;20339;49.754;20.158;2022-10-15T10:54:58;11.80;;;10.40;;
34064;SDS011;20339;49.754;20.158;2022-10-15T10:57:34;12.10;;;9.60;;
34064;SDS011;20339;49.754;20.158;2022-10-15T11:00:14;11.30;;;8.70;;
34064;SDS011;20339;49.754;20.158;2022-10-15T11:02:51;12.40;;;10.70;;
34064;SDS011;20339;49.754;20.158;2022-10-15T11:05:25;12.20;;;9.40;;
34064;SDS011;20339;49.754;20.158;2022-10-15T11:08:01;11.60;;;8.10;;
34064;SDS011;20339;49.754;20.158;2022-10-15T11:10:40;12.70;;;10.10;;
34064;SDS011;20339;49.754;20.158;2022-10-15T11:13:23;13.20;;;10.40;;
34064;SDS011;20339;49.754;20.158;2022-10-15T11:16:04;11.50;;;9.40;;
34064;SDS011;20339;49.754;20.158;2022-10-15T11:18:48;13.40;;;9.80;;
34064;SDS011;20339;49.754;20.158;2022-10-15T11:21:32;11.20;;;9.90;;
34064;SDS011;20339;49.754;20.158;2022-10-15T11:24:18;13.30;;;10.10;;
34064;SDS011;20339;49.754;20.158;2022-10-15T11:27:07;10.80;;;9.70;;
34064;SDS011;20339;49.754;20.158;2022-10-15T11:29:52;11.80;;;10.50;;
34064;SDS011;20339;49.754;20.158;2022-10-15T11:32:31;12.90;;;10.50;;
34064;SDS011;20339;49.754;20.158;2022-10-15T11:35:13;11.10;;;9.50;;
34064;SDS011;20339;49.754;20.158;2022-10-15T11:37:57;12.80;;;9.70;;
34064;SDS011;20339;49.754;20.158;2022-10-15T11:40:40;13.20;;;9.90;;
34064;SDS011;20339;49.754;20.158;2022-10-15T11:43:23;12.60;;;10.60;;
34064;SDS011;20339;49.754;20.158;2022-10-15T11:46:08;11.10;;;9.40;;
34064;SDS011;20339;49.754;20.158;2022-10-15T11:48:51;13.60;;;10.00;;
34064;SDS011;20339;49.754;20.158;2022-10-15T11:51:37;11.20;;;10.00;;
34064;SDS011;20339;49.754;20.158;2022-10-15T11:54:24;11.40;;;10.20;;
34064;SDS011;20339;49.754;20.158;2022-10-15T11:57:00;14.20;;;10.30;;
34064;SDS011;20339;49.754;20.158;2022-10-15T11:59:34;12.00;;;10.00;;
34064;SDS011;20339;49.754;20.158;2022-10-15T12:02:12;12.40;;;10.50;;
34064;SDS011;20339;49.754;20.158;2022-10-15T12:04:46;13.60;;;10.30;;
34064;SDS011;20339;49.754;20.158;2022-10-15T12:07:21;13.50;;;10.50;;
34064;SDS011;20339;49.754;20.158;2022-10-15T12:09:56;12.00;;;9.90;;
34064;SDS011;20339;49.754;20.158;2022-10-15T12:12:36;12.90;;;10.40;;
34064;SDS011;20339;49.754;20.158;2022-10-15T12:15:16;11.70;;;10.00;;
34064;SDS011;20339;49.754;20.158;2022-10-15T12:17:57;11.50;;;9.60;;
34064;SDS011;20339;49.754;20.158;2022-10-15T12:20:35;12.10;;;8.80;;
34064;SDS011;20339;49.754;20.158;2022-10-15T12:23:20;11.20;;;9.50;;
34064;SDS011;20339;49.754;20.158;2022-10-15T12:25:54;15.40;;;10.40;;
34064;SDS011;20339;49.754;20.158;2022-10-15T12:28:27;12.20;;;10.30;;
34064;SDS011;20339;49.754;20.158;2022-10-15T12:31:00;12.80;;;10.30;;
34064;SDS011;20339;49.754;20.158;2022-10-15T12:33:34;11.20;;;10.00;;
34064;SDS011;20339;49.754;20.158;2022-10-15T12:36:19;12.10;;;9.80;;
34064;SDS011;20339;49.754;20.158;2022-10-15T12:38:57;11.60;;;9.30;;
34064;SDS011;20339;49.754;20.158;2022-10-15T12:41:35;11.80;;;9.80;;
34064;SDS011;20339;49.754;20.158;2022-10-15T12:44:17;12.90;;;9.80;;
34064;SDS011;20339;49.754;20.158;2022-10-15T12:46:52;11.50;;;9.80;;
34064;SDS011;20339;49.754;20.158;2022-10-15T12:55:32;13.10;;;10.20;;
34064;SDS011;20339;49.754;20.158;2022-10-15T12:58:29;10.10;;;8.60;;
34064;SDS011;20339;49.754;20.158;2022-10-15T13:01:05;10.90;;;9.70;;
34064;SDS011;20339;49.754;20.158;2022-10-15T13:03:58;10.20;;;8.80;;
34064;SDS011;20339;49.754;20.158;2022-10-15T13:06:33;12.40;;;9.80;;
34064;SDS011;20339;49.754;20.158;2022-10-15T13:09:16;13.60;;;9.60;;
34064;SDS011;20339;49.754;20.158;2022-10-15T13:11:59;12.20;;;9.50;;
34064;SDS011;20339;49.754;20.158;2022-10-15T13:14:32;10.70;;;9.10;;
34064;SDS011;20339;49.754;20.158;2022-10-15T13:17:17;11.00;;;8.40;;
34064;SDS011;20339;49.754;20.158;2022-10-15T13:19:53;10.60;;;9.20;;
34064;SDS011;20339;49.754;20.158;2022-10-15T13:22:28;10.20;;;8.60;;
34064;SDS011;20339;49.754;20.158;2022-10-15T13:25:00;11.90;;;9.50;;
34064;SDS011;20339;49.754;20.158;2022-10-15T13:27:43;10.20;;;8.40;;
34064;SDS011;20339;49.754;20.158;2022-10-15T13:30:14;11.10;;;9.60;;
34064;SDS011;20339;49.754;20.158;2022-10-15T13:32:49;10.80;;;8.70;;
34064;SDS011;20339;49.754;20.158;2022-10-15T13:35:22;10.40;;;8.70;;
34064;SDS011;20339;49.754;20.158;2022-10-15T13:37:58;11.00;;;8.70;;
34064;SDS011;20339;49.754;20.158;2022-10-15T13:40:31;10.10;;;9.00;;
34064;SDS011;20339;49.754;20.158;2022-10-15T13:43:03;11.00;;;9.10;;
34064;SDS011;20339;49.754;20.158;2022-10-15T13:45:46;11.90;;;9.80;;
34064;SDS011;20339;49.754;20.158;2022-10-15T13:48:20;11.40;;;9.10;;
34064;SDS011;20339;49.754;20.158;2022-10-15T13:50:53;14.10;;;10.40;;
34064;SDS011;20339;49.754;20.158;2022-10-15T13:53:27;16.10;;;11.80;;
34064;SDS011;20339;49.754;20.158;2022-10-15T13:56:02;13.30;;;10.90;;
34064;SDS011;20339;49.754;20.158;2022-10-15T13:58:49;13.90;;;10.70;;
34064;SDS011;20339;49.754;20.158;2022-10-15T14:01:21;12.30;;;10.00;;
34064;SDS011;20339;49.754;20.158;2022-10-15T14:03:54;11.40;;;9.10;;
34064;SDS011;20339;49.754;20.158;2022-10-15T14:06:27;9.50;;;7.70;;
34064;SDS011;20339;49.754;20.158;2022-10-15T14:09:01;10.00;;;8.20;;
34064;SDS011;20339;49.754;20.158;2022-10-15T14:11:46;10.50;;;8.00;;
34064;SDS011;20339;49.754;20.158;2022-10-15T14:14:30;11.30;;;8.50;;
34064;SDS011;20339;49.754;20.158;2022-10-15T14:17:03;9.20;;;7.80;;
34064;SDS011;20339;49.754;20.158;2022-10-15T14:19:36;11.30;;;8.20;;
34064;SDS011;20339;49.754;20.158;2022-10-15T14:22:15;10.20;;;8.30;;
34064;SDS011;20339;49.754;20.158;2022-10-15T14:24:51;14.20;;;10.30;;
34064;SDS011;20339;49.754;20.158;2022-10-15T14:27:24;13.80;;;9.50;;
34064;SDS011;20339;49.754;20.158;2022-10-15T14:29:57;14.40;;;9.90;;
34064;SDS011;20339;49.754;20.158;2022-10-15T14:32:30;12.40;;;9.20;;
34064;SDS011;20339;49.754;20.158;2022-10-15T14:35:23;12.90;;;9.60;;
34064;SDS011;20339;49.754;20.158;2022-10-15T14:37:59;12.70;;;10.00;;
34064;SDS011;20339;49.754;20.158;2022-10-15T14:40:33;15.40;;;10.50;;
34064;SDS011;20339;49.754;20.158;2022-10-15T14:43:05;13.00;;;9.80;;
34064;SDS011;20339;49.754;20.158;2022-10-15T14:45:57;13.20;;;9.60;;
34064;SDS011;20339;49.754;20.158;2022-10-15T14:48:32;14.20;;;10.10;;
34064;SDS011;20339;49.754;20.158;2022-10-15T14:51:14;14.80;;;10.50;;
34064;SDS011;20339;49.754;20.158;2022-10-15T14:53:51;13.50;;;10.50;;
34064;SDS011;20339;49.754;20.158;2022-10-15T14:56:24;14.10;;;10.50;;
34064;SDS011;20339;49.754;20.158;2022-10-15T14:59:00;13.60;;;10.40;;
34064;SDS011;20339;49.754;20.158;2022-10-15T15:01:35;16.90;;;9.90;;
34064;SDS011;20339;49.754;20.158;2022-10-15T15:07:13;15.90;;;11.00;;
34064;SDS011;20339;49.754;20.158;2022-10-15T15:09:50;15.10;;;10.30;;
34064;SDS011;20339;49.754;20.158;2022-10-15T15:12:22;13.30;;;10.50;;
34064;SDS011;20339;49.754;20.158;2022-10-15T15:14:54;14.10;;;11.50;;
34064;SDS011;20339;49.754;20.158;2022-10-15T15:17:27;16.00;;;11.70;;
34064;SDS011;20339;49.754;20.158;2022-10-15T15:19:59;13.50;;;9.90;;